Time;durP1;ratioP1;P1;durP2;ratioP2;P2;SDS_P1;SDS_P2;PMS_P1;PMS_P2;Temp;Humidity;BMP_temperature;BMP_pressure;BME280_temperature;BME280_humidity;BME280_pressure;Samples;Min_cycle;Max_cycle;Signal;HPM_P1;HPM_P2
2023/01/30 00:01:11;;;;;;;6.60;5.40;;;-0.10;99.90;;;;;;7415515;19;20312;-84
2023/01/30 00:03:36;;;;;;;7.60;6.32;;;-0.10;99.90;;;;;;7414454;19;20316;-91
2023/01/30 00:06:02;;;;;;;8.95;5.55;;;-0.10;99.90;;;;;;7416479;19;20341;-87
2023/01/30 00:08:28;;;;;;;8.73;6.57;;;-0.20;99.90;;;;;;7414232;19;20360;-87
2023/01/30 00:10:53;;;;;;;8.18;6.00;;;-0.10;99.90;;;;;;7413487;19;20301;-88
2023/01/30 00:13:20;;;;;;;8.40;5.97;;;0.00;99.90;;;;;;7415082;19;20687;-82
2023/01/30 00:15:46;;;;;;;7.97;6.20;;;-0.20;99.90;;;;;;7415811;19;20328;-87
2023/01/30 00:18:15;;;;;;;8.93;6.07;;;-0.10;99.90;;;;;;7415209;19;21461;-88
2023/01/30 00:20:41;;;;;;;10.17;6.57;;;-0.10;99.90;;;;;;7413489;19;20348;-88
2023/01/30 00:23:07;;;;;;;7.60;6.27;;;-0.20;99.90;;;;;;7414824;19;20365;-88
2023/01/30 00:25:32;;;;;;;9.82;6.20;;;-0.20;99.90;;;;;;7411049;19;20325;-86
2023/01/30 00:27:59;;;;;;;6.33;5.40;;;-0.20;99.90;;;;;;7409578;19;20320;-85
2023/01/30 00:30:25;;;;;;;9.50;6.80;;;-0.10;99.90;;;;;;7410057;19;20324;-88
2023/01/30 00:32:55;;;;;;;10.50;7.10;;;-0.30;99.90;;;;;;7413586;19;20415;-90
2023/01/30 00:35:27;;;;;;;7.80;5.90;;;-0.20;99.90;;;;;;7413918;19;20309;-89
2023/01/30 00:37:55;;;;;;;8.60;6.40;;;-0.20;99.90;;;;;;7311207;19;2004208;-87
2023/01/30 00:40:21;;;;;;;8.30;7.00;;;-0.20;99.90;;;;;;7413128;19;20305;-88
2023/01/30 00:48:21;;;;;;;7.85;6.38;;;-0.20;99.90;;;;;;7412746;19;20312;-86
2023/01/30 00:50:47;;;;;;;8.60;6.53;;;-0.20;99.90;;;;;;7412060;19;20328;-89
2023/01/30 00:53:13;;;;;;;8.30;6.43;;;-0.20;99.90;;;;;;7410565;19;20357;-89
2023/01/30 00:55:39;;;;;;;8.07;6.55;;;-0.20;99.90;;;;;;7412851;19;20393;-89
2023/01/30 00:58:04;;;;;;;10.63;6.93;;;-0.20;99.90;;;;;;7411994;19;20854;-88
2023/01/30 01:00:30;;;;;;;11.55;6.35;;;-0.20;99.90;;;;;;7412523;19;20312;-87
2023/01/30 01:02:56;;;;;;;9.02;6.68;;;-0.20;99.90;;;;;;7412853;19;20332;-87
2023/01/30 01:05:22;;;;;;;9.70;7.10;;;-0.20;99.90;;;;;;7412847;19;20312;-88
2023/01/30 01:07:47;;;;;;;9.68;6.45;;;-0.20;99.90;;;;;;7412820;19;20300;-86
2023/01/30 01:10:15;;;;;;;9.00;6.77;;;-0.30;99.90;;;;;;7409880;19;20395;-86
2023/01/30 01:12:42;;;;;;;9.43;6.72;;;-0.30;99.90;;;;;;7410793;19;20309;-87
2023/01/30 01:15:08;;;;;;;10.38;7.75;;;-0.30;99.90;;;;;;7410856;19;20329;-91
2023/01/30 01:17:34;;;;;;;7.88;6.07;;;-0.30;99.90;;;;;;7408653;19;20384;-86
2023/01/30 01:19:59;;;;;;;8.05;6.85;;;-0.40;99.90;;;;;;7412465;19;20331;-85
2023/01/30 01:22:25;;;;;;;9.30;7.00;;;-0.40;99.90;;;;;;7413238;19;20364;-87
2023/01/30 01:24:50;;;;;;;8.75;7.22;;;-0.40;99.90;;;;;;7413020;19;20345;-86
2023/01/30 01:27:17;;;;;;;7.63;6.07;;;-0.40;99.90;;;;;;7411180;19;20316;-85
2023/01/30 01:29:43;;;;;;;7.95;6.47;;;-0.30;99.90;;;;;;7409821;19;20373;-90
2023/01/30 01:32:08;;;;;;;9.53;6.70;;;-0.30;99.90;;;;;;7409448;19;20419;-86
2023/01/30 01:34:34;;;;;;;8.70;6.32;;;-0.30;99.90;;;;;;7412174;19;20370;-89
2023/01/30 01:36:59;;;;;;;8.10;6.40;;;-0.30;99.90;;;;;;7411487;19;20321;-88
2023/01/30 01:41:00;;;;;;;11.80;7.45;;;-0.20;99.90;;;;;;7413445;19;20316;-88
2023/01/30 01:42:11;;;;;;;8.07;6.40;;;-0.20;99.90;;;;;;7412579;19;20333;-90
2023/01/30 01:45:12;;;;;;;10.87;7.33;;;-0.20;99.90;;;;;;7414344;19;20332;-86
2023/01/30 01:47:40;;;;;;;9.15;6.38;;;-0.20;99.90;;;;;;7314783;19;2004070;-84
2023/01/30 01:50:08;;;;;;;9.50;6.70;;;-0.10;99.90;;;;;;7418594;19;20332;-88
2023/01/30 01:52:33;;;;;;;7.80;6.70;;;-0.20;99.90;;;;;;7420899;19;20333;-87
2023/01/30 01:55:01;;;;;;;8.80;6.97;;;-0.20;99.90;;;;;;7416453;19;20345;-87
2023/01/30 01:57:41;;;;;;;7.25;5.95;;;-0.10;99.90;;;;;;7419484;19;20320;-88
2023/01/30 02:00:17;;;;;;;8.13;6.30;;;-0.20;99.90;;;;;;7418523;19;20323;-88
2023/01/30 02:03:07;;;;;;;9.27;6.88;;;-0.20;99.90;;;;;;7417373;19;20337;-89
2023/01/30 02:05:34;;;;;;;7.43;5.90;;;-0.20;99.90;;;;;;7317198;19;2004260;-89
2023/01/30 02:08:32;;;;;;;9.30;6.80;;;-0.20;99.90;;;;;;7419402;19;20324;-87
2023/01/30 02:11:03;;;;;;;8.57;6.53;;;-0.20;99.90;;;;;;7315204;19;2004310;-84
2023/01/30 02:13:30;;;;;;;7.68;5.85;;;-0.20;99.90;;;;;;7418230;19;20320;-88
2023/01/30 02:15:57;;;;;;;8.10;6.60;;;-0.20;99.90;;;;;;7418261;19;20328;-85
2023/01/30 02:18:22;;;;;;;7.63;6.05;;;-0.20;99.90;;;;;;7420030;19;20308;-85
2023/01/30 02:20:56;;;;;;;7.50;6.00;;;-0.20;99.90;;;;;;7418262;19;20317;-81
2023/01/30 02:23:55;;;;;;;10.07;7.20;;;-0.20;99.90;;;;;;7414988;19;20319;-88
2023/01/30 02:26:53;;;;;;;7.70;6.27;;;-0.20;99.90;;;;;;7312527;19;2004389;-88
2023/01/30 02:29:49;;;;;;;10.80;6.90;;;-0.10;99.90;;;;;;7313611;19;2004376;-87
2023/01/30 02:32:25;;;;;;;8.82;6.57;;;-0.10;99.90;;;;;;7313223;19;2004224;-87
2023/01/30 02:35:20;;;;;;;7.70;6.22;;;-0.10;99.90;;;;;;7412160;19;20304;-89
2023/01/30 02:38:16;;;;;;;8.87;6.63;;;-0.10;99.90;;;;;;7311095;19;2004242;-90
2023/01/30 02:41:01;;;;;;;9.93;6.70;;;-0.10;99.90;;;;;;7311522;19;2004240;-89
2023/01/30 02:43:36;;;;;;;10.20;7.40;;;-0.10;99.90;;;;;;7311203;19;2004117;-85
2023/01/30 02:46:18;;;;;;;9.68;6.70;;;-0.10;99.90;;;;;;7417270;19;20300;-87
2023/01/30 02:48:52;;;;;;;7.97;6.60;;;-0.10;99.90;;;;;;7414311;19;20385;-86
2023/01/30 02:51:18;;;;;;;11.35;7.05;;;-0.10;99.90;;;;;;7417409;19;20339;-85
2023/01/30 02:53:45;;;;;;;8.18;6.93;;;-0.10;99.90;;;;;;7412944;19;20361;-86
2023/01/30 02:56:11;;;;;;;11.40;6.88;;;0.00;99.90;;;;;;7417709;19;20305;-87
2023/01/30 02:58:40;;;;;;;8.68;7.05;;;0.00;99.90;;;;;;7417458;19;20368;-81
2023/01/30 03:01:29;;;;;;;10.23;7.23;;;0.00;99.90;;;;;;7415647;19;20316;-87
2023/01/30 03:04:32;;;;;;;8.23;6.88;;;0.00;99.90;;;;;;7315563;19;2005814;-86
2023/01/30 03:07:25;;;;;;;8.98;7.05;;;0.00;99.90;;;;;;7314370;19;2004227;-90
2023/01/30 03:10:00;;;;;;;9.50;7.40;;;0.00;99.90;;;;;;7418653;19;20296;-86
2023/01/30 03:12:36;;;;;;;8.93;6.30;;;0.10;99.90;;;;;;7313476;19;2004343;-88
2023/01/30 03:15:21;;;;;;;8.02;6.43;;;0.10;99.90;;;;;;7417402;19;20329;-86
2023/01/30 03:17:47;;;;;;;10.05;7.55;;;0.10;99.90;;;;;;7418766;19;20665;-86
2023/01/30 03:20:15;;;;;;;8.00;5.93;;;0.30;99.90;;;;;;7416975;19;20305;-84
2023/01/30 03:22:41;;;;;;;11.85;6.90;;;0.10;99.90;;;;;;7418263;19;20325;-88
2023/01/30 03:25:07;;;;;;;10.45;7.13;;;0.10;99.90;;;;;;7416990;19;20297;-88
2023/01/30 03:27:33;;;;;;;8.18;5.90;;;0.10;99.90;;;;;;7418092;19;20324;-87
2023/01/30 03:29:59;;;;;;;9.20;6.80;;;0.10;99.90;;;;;;7417744;19;20300;-86
2023/01/30 03:32:24;;;;;;;8.82;7.00;;;0.10;99.90;;;;;;7417685;19;20387;-83
2023/01/30 03:34:50;;;;;;;8.52;6.78;;;0.20;99.90;;;;;;7417906;19;20293;-84
2023/01/30 03:37:16;;;;;;;8.50;6.27;;;0.20;99.90;;;;;;7419713;19;20293;-90
2023/01/30 03:39:42;;;;;;;6.85;6.10;;;0.30;99.90;;;;;;7418256;19;20361;-88
2023/01/30 03:42:09;;;;;;;8.02;6.90;;;0.20;99.90;;;;;;7418644;19;20408;-88
2023/01/30 03:44:36;;;;;;;7.05;5.90;;;0.20;99.90;;;;;;7418559;19;20344;-85
2023/01/30 03:47:02;;;;;;;8.38;6.88;;;0.20;99.90;;;;;;7418940;19;20313;-85
2023/01/30 03:49:28;;;;;;;7.82;6.40;;;0.30;99.90;;;;;;7420083;19;20345;-86
2023/01/30 03:51:54;;;;;;;8.20;6.15;;;0.40;99.90;;;;;;7417894;19;20299;-86
2023/01/30 03:54:20;;;;;;;10.20;6.80;;;0.40;99.90;;;;;;7418151;19;20340;-84
2023/01/30 03:56:46;;;;;;;7.50;6.70;;;0.30;99.90;;;;;;7417901;19;20304;-87
2023/01/30 03:59:12;;;;;;;7.88;6.03;;;0.20;99.90;;;;;;7417438;19;20336;-87
2023/01/30 04:01:44;;;;;;;10.50;7.05;;;0.20;99.90;;;;;;7417720;19;20309;-89
2023/01/30 04:04:09;;;;;;;7.83;6.87;;;0.10;99.90;;;;;;7417864;19;20344;-90
2023/01/30 04:06:36;;;;;;;9.15;6.63;;;0.00;99.90;;;;;;7419107;19;20336;-86
2023/01/30 04:09:02;;;;;;;8.65;6.60;;;0.00;99.90;;;;;;7415713;19;20333;-87
2023/01/30 04:11:38;;;;;;;9.27;7.13;;;-0.10;99.90;;;;;;7414647;19;20317;-84
2023/01/30 04:14:04;;;;;;;10.35;6.72;;;0.00;99.90;;;;;;7411647;19;20390;-88
2023/01/30 04:16:32;;;;;;;8.70;6.85;;;-0.10;99.90;;;;;;7415857;19;20542;-87
2023/01/30 04:19:16;;;;;;;11.45;7.75;;;-0.10;99.90;;;;;;7416399;19;20327;-87
2023/01/30 04:21:42;;;;;;;9.75;7.28;;;-0.10;99.90;;;;;;7415446;19;20328;-88
2023/01/30 04:24:08;;;;;;;8.50;6.75;;;-0.10;99.90;;;;;;7413519;19;20309;-87
2023/01/30 04:26:34;;;;;;;10.73;8.07;;;-0.10;99.90;;;;;;7414863;19;20328;-91
2023/01/30 04:29:00;;;;;;;10.20;7.25;;;0.00;99.90;;;;;;7414799;19;20296;-86
2023/01/30 04:31:27;;;;;;;8.75;6.50;;;0.00;99.90;;;;;;7415873;19;20341;-83
2023/01/30 04:34:01;;;;;;;9.02;7.65;;;0.00;99.90;;;;;;7413184;19;20335;-84
2023/01/30 04:36:30;;;;;;;9.43;7.67;;;-0.10;99.90;;;;;;7415702;19;20312;-83
2023/01/30 04:38:57;;;;;;;7.85;6.65;;;-0.10;99.90;;;;;;7414425;19;20320;-83
2023/01/30 04:41:23;;;;;;;9.55;7.15;;;0.00;99.90;;;;;;7410953;19;20300;-87
2023/01/30 04:43:50;;;;;;;9.25;7.50;;;-0.20;99.90;;;;;;7414556;19;20312;-86
2023/01/30 04:46:55;;;;;;;12.30;6.68;;;-0.20;99.90;;;;;;7209926;19;2004251;-87
2023/01/30 04:49:21;;;;;;;9.25;7.50;;;-0.10;99.90;;;;;;7415805;19;20321;-88
2023/01/30 04:51:47;;;;;;;9.97;7.70;;;-0.10;99.90;;;;;;7415103;19;20298;-84
2023/01/30 04:54:13;;;;;;;9.67;7.77;;;0.00;99.90;;;;;;7414481;19;20763;-87
2023/01/30 04:56:40;;;;;;;8.57;6.90;;;0.00;99.90;;;;;;7413864;19;20340;-88
2023/01/30 04:59:06;;;;;;;10.85;7.95;;;0.00;99.90;;;;;;7414649;19;20317;-85
2023/01/30 05:01:37;;;;;;;10.35;8.02;;;0.00;99.90;;;;;;7413974;19;20357;-87
2023/01/30 05:04:03;;;;;;;9.67;7.90;;;0.10;99.90;;;;;;7414230;19;20312;-89
2023/01/30 05:06:29;;;;;;;9.13;6.80;;;0.10;99.90;;;;;;7414289;19;20779;-83
2023/01/30 05:08:55;;;;;;;9.37;7.30;;;0.20;99.90;;;;;;7414281;19;20320;-87
2023/01/30 05:11:21;;;;;;;9.82;7.38;;;0.30;99.90;;;;;;7414653;19;20316;-84
2023/01/30 05:13:47;;;;;;;11.53;8.07;;;0.30;99.90;;;;;;7411739;19;20353;-86
2023/01/30 05:16:13;;;;;;;10.90;7.32;;;0.30;99.90;;;;;;7415020;19;20434;-88
2023/01/30 05:18:39;;;;;;;8.82;7.38;;;0.40;99.90;;;;;;7410572;19;20346;-85
2023/01/30 05:21:08;;;;;;;10.52;7.47;;;0.40;99.90;;;;;;7413517;19;20332;-88
2023/01/30 05:23:34;;;;;;;12.38;7.93;;;0.50;99.90;;;;;;7412420;19;20325;-88
2023/01/30 05:26:00;;;;;;;10.80;8.00;;;0.50;99.90;;;;;;7412490;19;20312;-86
2023/01/30 05:28:26;;;;;;;9.10;6.82;;;0.60;99.90;;;;;;7414336;19;20726;-85
2023/01/30 05:30:51;;;;;;;8.45;6.65;;;0.60;99.90;;;;;;7413102;19;20315;-86
2023/01/30 05:33:17;;;;;;;9.33;7.33;;;0.60;99.90;;;;;;7412743;19;20319;-84
2023/01/30 05:35:47;;;;;;;10.13;7.55;;;0.70;99.90;;;;;;7411581;19;20373;-86
2023/01/30 05:38:12;;;;;;;8.93;6.82;;;0.70;99.90;;;;;;7412584;19;20317;-87
2023/01/30 05:40:38;;;;;;;11.32;7.63;;;0.70;99.90;;;;;;7412510;19;20368;-88
2023/01/30 05:43:03;;;;;;;10.23;7.60;;;0.70;99.90;;;;;;7412602;19;20369;-87
2023/01/30 05:45:29;;;;;;;9.98;7.80;;;0.90;99.90;;;;;;7413562;19;20305;-86
2023/01/30 05:47:55;;;;;;;10.93;7.20;;;0.80;99.90;;;;;;7413464;19;20309;-88
2023/01/30 05:50:20;;;;;;;8.70;7.03;;;0.80;99.90;;;;;;7413304;19;20316;-87
2023/01/30 05:52:46;;;;;;;9.60;7.47;;;0.90;99.90;;;;;;7413277;19;20301;-86
2023/01/30 05:55:12;;;;;;;10.50;7.50;;;0.90;99.90;;;;;;7412402;19;20347;-87
2023/01/30 05:57:37;;;;;;;10.68;7.90;;;0.90;99.90;;;;;;7414060;19;20339;-89
2023/01/30 06:00:04;;;;;;;9.03;7.00;;;1.00;99.90;;;;;;7412506;19;20329;-87
2023/01/30 06:02:38;;;;;;;9.80;7.77;;;0.90;99.90;;;;;;7411455;19;20352;-87
2023/01/30 06:05:04;;;;;;;9.85;7.03;;;1.00;99.90;;;;;;7412298;19;20332;-82
2023/01/30 06:07:30;;;;;;;9.73;7.47;;;1.00;99.90;;;;;;7412582;19;20349;-90
2023/01/30 06:09:55;;;;;;;9.80;7.82;;;1.10;99.90;;;;;;7412673;19;20336;-87
2023/01/30 06:12:21;;;;;;;10.87;7.57;;;1.10;99.90;;;;;;7410316;19;20330;-80
2023/01/30 06:14:47;;;;;;;10.07;6.88;;;1.10;99.90;;;;;;7411298;19;20353;-87
2023/01/30 06:17:12;;;;;;;10.93;7.53;;;1.10;99.90;;;;;;7411542;19;20414;-85
2023/01/30 06:19:38;;;;;;;11.02;7.18;;;1.00;99.90;;;;;;7414169;19;20336;-85
2023/01/30 06:22:04;;;;;;;12.15;7.85;;;1.10;99.90;;;;;;7411288;19;20355;-88
2023/01/30 06:24:29;;;;;;;10.70;7.60;;;1.10;99.90;;;;;;7412891;19;20340;-86
2023/01/30 06:26:55;;;;;;;9.40;7.32;;;1.10;99.90;;;;;;7412864;19;20309;-87
2023/01/30 06:29:20;;;;;;;11.60;7.47;;;1.00;99.90;;;;;;7415870;19;20357;-88
2023/01/30 06:31:46;;;;;;;11.38;8.07;;;1.00;99.90;;;;;;7414834;19;20313;-86
2023/01/30 06:34:12;;;;;;;10.77;7.93;;;0.90;99.90;;;;;;7417826;19;20332;-86
2023/01/30 06:36:37;;;;;;;10.57;7.72;;;0.90;99.90;;;;;;7420299;19;20313;-85
2023/01/30 06:39:03;;;;;;;9.87;7.60;;;0.90;99.90;;;;;;7419459;19;20325;-87
2023/01/30 06:41:29;;;;;;;10.15;7.57;;;0.90;99.90;;;;;;7420210;19;20352;-86
2023/01/30 06:43:54;;;;;;;9.87;7.93;;;0.90;99.90;;;;;;7419373;19;20321;-82
2023/01/30 06:46:20;;;;;;;11.63;7.77;;;0.80;99.90;;;;;;7420018;19;20337;-88
2023/01/30 06:48:46;;;;;;;9.38;7.68;;;0.90;99.90;;;;;;7419876;19;20305;-87
2023/01/30 06:51:11;;;;;;;11.77;8.07;;;0.90;99.90;;;;;;7420002;19;20317;-84
2023/01/30 06:53:37;;;;;;;10.33;7.90;;;1.00;99.90;;;;;;7417539;19;20360;-86
2023/01/30 06:56:03;;;;;;;9.70;7.63;;;1.00;99.90;;;;;;7419551;19;20352;-86
2023/01/30 06:58:29;;;;;;;9.57;7.20;;;1.00;99.90;;;;;;7415498;19;20337;-82
2023/01/30 07:00:54;;;;;;;11.88;7.97;;;1.10;99.90;;;;;;7416144;19;20336;-78
2023/01/30 07:03:20;;;;;;;10.20;7.50;;;1.10;99.90;;;;;;7417925;19;20473;-84
2023/01/30 07:05:46;;;;;;;10.13;7.40;;;1.00;99.90;;;;;;7418401;19;20312;-82
2023/01/30 07:08:13;;;;;;;9.80;7.50;;;1.10;99.90;;;;;;7417134;19;20332;-79
2023/01/30 07:10:39;;;;;;;10.43;7.72;;;1.10;99.90;;;;;;7416836;19;20354;-85
2023/01/30 07:13:04;;;;;;;11.30;7.68;;;1.10;99.90;;;;;;7415946;19;20336;-82
2023/01/30 07:15:30;;;;;;;11.20;8.13;;;1.10;99.90;;;;;;7416600;19;20360;-84
2023/01/30 07:17:55;;;;;;;9.85;7.53;;;1.10;99.90;;;;;;7412801;19;20317;-85
2023/01/30 07:20:21;;;;;;;11.07;7.53;;;1.10;99.90;;;;;;7411978;19;20363;-87
2023/01/30 07:22:50;;;;;;;10.30;7.63;;;1.20;99.90;;;;;;7412904;19;20317;-84
2023/01/30 07:25:16;;;;;;;9.88;7.78;;;1.20;99.90;;;;;;7411636;19;20348;-82
2023/01/30 07:27:42;;;;;;;10.00;7.43;;;1.10;99.90;;;;;;7413982;19;20323;-91
2023/01/30 07:30:08;;;;;;;10.97;7.83;;;1.10;99.90;;;;;;7410996;19;20323;-90
2023/01/30 07:32:34;;;;;;;9.77;8.00;;;1.10;99.90;;;;;;7411583;19;20355;-90
2023/01/30 07:34:59;;;;;;;10.87;8.30;;;1.00;99.90;;;;;;7413795;19;20364;-85
2023/01/30 07:37:25;;;;;;;8.95;6.93;;;0.90;99.90;;;;;;7417564;19;20293;-85
2023/01/30 07:39:51;;;;;;;9.57;6.90;;;1.00;99.90;;;;;;7415442;19;20312;-89
2023/01/30 07:42:16;;;;;;;11.95;7.95;;;0.90;99.90;;;;;;7410385;19;20341;-85
2023/01/30 07:44:42;;;;;;;9.03;7.03;;;0.90;99.90;;;;;;7408969;19;20325;-89
2023/01/30 07:47:07;;;;;;;10.13;7.40;;;1.00;99.90;;;;;;7412730;19;20347;-87
2023/01/30 07:49:33;;;;;;;9.30;7.20;;;0.90;99.90;;;;;;7407773;19;20308;-86
2023/01/30 07:51:59;;;;;;;9.07;7.18;;;0.90;99.90;;;;;;7406066;19;20328;-90
2023/01/30 07:54:25;;;;;;;9.55;7.30;;;1.00;99.90;;;;;;7410154;19;20312;-86
2023/01/30 07:56:51;;;;;;;9.82;7.50;;;0.90;99.90;;;;;;7411990;19;20309;-88
2023/01/30 07:59:16;;;;;;;9.77;8.03;;;0.90;99.90;;;;;;7412524;19;20297;-89
2023/01/30 08:01:42;;;;;;;9.98;6.93;;;0.90;99.90;;;;;;7410815;19;20319;-90
2023/01/30 08:04:07;;;;;;;10.00;7.20;;;0.90;99.90;;;;;;7405514;19;20392;-85
2023/01/30 08:06:37;;;;;;;10.13;7.00;;;1.00;99.90;;;;;;7408651;19;20357;-90
2023/01/30 08:09:03;;;;;;;9.02;6.72;;;1.00;99.90;;;;;;7407975;19;20318;-86
2023/01/30 08:11:28;;;;;;;9.67;7.37;;;1.10;99.90;;;;;;7405989;19;20356;-84
2023/01/30 08:13:54;;;;;;;11.45;7.68;;;1.10;99.90;;;;;;7413480;19;20328;-90
2023/01/30 08:16:20;;;;;;;8.23;6.40;;;1.10;99.90;;;;;;7409957;19;20305;-86
2023/01/30 08:18:45;;;;;;;10.05;6.85;;;1.10;99.90;;;;;;7408324;19;20300;-85
2023/01/30 08:21:11;;;;;;;7.90;6.40;;;1.20;99.90;;;;;;7407323;19;20979;-92
2023/01/30 08:23:36;;;;;;;8.48;6.80;;;1.20;99.90;;;;;;7408654;19;20386;-88
2023/01/30 08:26:02;;;;;;;8.27;6.53;;;1.30;99.90;;;;;;7410237;19;20336;-87
2023/01/30 08:28:28;;;;;;;7.75;6.40;;;1.30;99.90;;;;;;7410985;19;20313;-89
2023/01/30 08:30:54;;;;;;;6.93;6.15;;;1.30;99.90;;;;;;7413744;19;20368;-87
2023/01/30 08:33:20;;;;;;;8.57;6.33;;;1.30;99.90;;;;;;7416191;19;20297;-86
2023/01/30 08:35:46;;;;;;;10.80;7.33;;;1.40;99.90;;;;;;7416041;19;20362;-87
2023/01/30 08:38:11;;;;;;;8.97;6.60;;;1.50;99.90;;;;;;7416178;19;20346;-87
2023/01/30 08:40:37;;;;;;;7.77;6.27;;;1.60;99.90;;;;;;7411043;19;20341;-81
2023/01/30 08:43:02;;;;;;;8.23;6.30;;;1.70;99.90;;;;;;7412994;19;20352;-85
2023/01/30 08:45:29;;;;;;;8.10;6.03;;;1.60;99.90;;;;;;7411408;19;20331;-87
2023/01/30 08:47:59;;;;;;;8.18;6.25;;;1.60;99.90;;;;;;7415112;19;20336;-86
2023/01/30 08:50:25;;;;;;;8.50;6.30;;;1.70;99.90;;;;;;7412740;19;20327;-89
2023/01/30 08:52:51;;;;;;;9.23;5.90;;;1.80;99.90;;;;;;7412436;19;20309;-87
2023/01/30 08:55:17;;;;;;;8.90;6.40;;;1.80;99.90;;;;;;7416159;19;20341;-89
2023/01/30 08:57:43;;;;;;;8.57;6.43;;;1.90;99.90;;;;;;7413009;19;20313;-89
2023/01/30 09:00:10;;;;;;;8.33;6.50;;;1.90;99.90;;;;;;7414579;19;20321;-88
2023/01/30 09:02:36;;;;;;;9.32;6.60;;;1.90;99.90;;;;;;7413491;19;20316;-87
2023/01/30 09:05:02;;;;;;;9.43;6.33;;;2.10;99.90;;;;;;7414008;19;20365;-88
2023/01/30 09:07:28;;;;;;;8.13;5.97;;;2.10;99.90;;;;;;7412202;19;20347;-86
2023/01/30 09:09:54;;;;;;;7.43;6.03;;;2.10;99.90;;;;;;7414076;19;20313;-89
2023/01/30 09:12:19;;;;;;;8.65;6.45;;;2.20;99.90;;;;;;7413727;19;20336;-87
2023/01/30 09:14:45;;;;;;;9.40;5.73;;;2.20;99.90;;;;;;7414485;19;20368;-91
2023/01/30 09:17:11;;;;;;;8.52;6.25;;;2.20;99.90;;;;;;7414869;19;20389;-87
2023/01/30 09:19:37;;;;;;;8.85;6.65;;;2.30;99.90;;;;;;7414003;19;20364;-88
2023/01/30 09:22:02;;;;;;;7.73;6.13;;;2.40;99.90;;;;;;7410213;19;20327;-88
2023/01/30 09:24:28;;;;;;;7.45;6.03;;;2.40;99.90;;;;;;7407952;19;20327;-86
2023/01/30 09:26:56;;;;;;;8.97;6.10;;;2.50;99.90;;;;;;7415684;19;20362;-89
2023/01/30 09:29:22;;;;;;;7.50;5.70;;;2.50;99.90;;;;;;7415315;19;20317;-88
2023/01/30 09:31:47;;;;;;;9.05;6.15;;;2.60;99.90;;;;;;7413681;19;20313;-88
2023/01/30 09:34:13;;;;;;;6.53;5.63;;;2.70;99.90;;;;;;7414309;19;20348;-87
2023/01/30 09:36:39;;;;;;;6.95;5.95;;;2.70;99.90;;;;;;7414306;19;20335;-88
2023/01/30 09:39:05;;;;;;;9.00;6.63;;;2.80;99.90;;;;;;7414317;19;20348;-87
2023/01/30 09:42:03;;;;;;;7.47;6.20;;;2.80;99.90;;;;;;7414228;19;20323;-88
2023/01/30 09:44:53;;;;;;;7.88;5.53;;;2.80;99.90;;;;;;7309443;19;2004350;-89
2023/01/30 09:47:57;;;;;;;7.50;5.95;;;2.80;99.90;;;;;;7414770;19;20316;-87
2023/01/30 09:50:48;;;;;;;11.23;6.75;;;2.80;99.90;;;;;;7309782;19;2017042;-89
2023/01/30 09:53:37;;;;;;;7.85;5.45;;;2.80;99.90;;;;;;7310958;19;2004294;-89
2023/01/30 09:56:03;;;;;;;5.78;4.65;;;2.80;99.90;;;;;;7308923;19;2004344;-90
2023/01/30 09:58:58;;;;;;;5.82;4.75;;;2.90;99.90;;;;;;7413877;19;20324;-87
2023/01/30 10:01:56;;;;;;;5.40;4.90;;;3.00;99.90;;;;;;7412799;19;20300;-87
2023/01/30 10:04:35;;;;;;;5.18;4.35;;;3.00;99.90;;;;;;7310704;19;2004137;-89
2023/01/30 10:07:13;;;;;;;4.50;3.85;;;3.10;99.90;;;;;;7312363;19;2004363;-88
2023/01/30 10:09:46;;;;;;;5.53;4.18;;;3.20;99.90;;;;;;7420432;19;20317;-87
2023/01/30 10:12:34;;;;;;;4.53;4.07;;;3.20;99.90;;;;;;7419370;19;20337;-86
2023/01/30 10:15:21;;;;;;;4.30;3.60;;;3.20;99.90;;;;;;7312909;19;2004378;-88
2023/01/30 10:18:24;;;;;;;4.82;3.80;;;3.30;99.90;;;;;;7414983;19;20656;-90
2023/01/30 10:20:59;;;;;;;4.63;3.70;;;3.30;99.90;;;;;;7311587;19;2004094;-92
2023/01/30 10:23:51;;;;;;;5.00;3.95;;;3.30;99.90;;;;;;7417857;19;20295;-93
2023/01/30 10:26:18;;;;;;;4.13;3.72;;;3.20;99.90;;;;;;7314322;19;2004379;-90
2023/01/30 10:28:59;;;;;;;4.20;3.58;;;3.20;99.90;;;;;;7417098;19;20362;-90
2023/01/30 10:31:27;;;;;;;3.92;3.42;;;3.20;99.90;;;;;;7416194;19;20329;-86
2023/01/30 10:34:00;;;;;;;4.60;3.92;;;3.20;99.90;;;;;;7417206;19;20332;-88
2023/01/30 10:36:58;;;;;;;5.05;3.63;;;3.30;99.90;;;;;;7416226;19;20297;-88
2023/01/30 10:39:45;;;;;;;4.32;3.60;;;3.30;99.90;;;;;;7208844;19;2004346;-90
2023/01/30 10:42:21;;;;;;;5.05;3.75;;;3.30;99.90;;;;;;7313872;19;2004515;-90
2023/01/30 10:44:46;;;;;;;4.13;3.50;;;3.40;99.90;;;;;;7413211;19;20341;-89
2023/01/30 10:47:53;;;;;;;5.10;3.00;;;3.40;99.90;;;;;;7412534;19;20337;-84
2023/01/30 10:50:22;;;;;;;11.80;6.03;;;3.50;99.90;;;;;;7310165;19;2003875;-87
2023/01/30 10:53:12;;;;;;;3.20;2.90;;;3.50;99.90;;;;;;7411733;19;20680;-87
2023/01/30 10:55:44;;;;;;;3.10;2.60;;;3.40;99.90;;;;;;7301734;19;2004220;-84
2023/01/30 10:58:22;;;;;;;2.83;2.50;;;3.40;99.90;;;;;;7409866;19;20308;-87
2023/01/30 11:00:56;;;;;;;2.97;2.50;;;3.40;99.90;;;;;;7409630;19;20317;-87
2023/01/30 11:03:45;;;;;;;2.50;2.30;;;3.20;99.90;;;;;;7409101;19;20300;-84
2023/01/30 11:06:17;;;;;;;2.65;2.45;;;3.20;99.90;;;;;;7308174;19;2004174;-90
2023/01/30 11:08:43;;;;;;;4.65;2.83;;;3.10;99.90;;;;;;7417228;19;20750;-88
2023/01/30 11:11:46;;;;;;;2.50;2.30;;;3.20;99.90;;;;;;7411549;19;20316;-91
2023/01/30 11:14:12;;;;;;;4.73;2.90;;;3.20;99.90;;;;;;7312240;19;2004540;-87
2023/01/30 11:16:50;;;;;;;4.10;2.47;;;3.30;99.90;;;;;;7407140;19;20328;-86
2023/01/30 11:19:37;;;;;;;3.53;2.93;;;3.60;99.90;;;;;;7420052;19;20334;-88
2023/01/30 11:22:03;;;;;;;3.38;2.85;;;3.60;99.90;;;;;;7315818;19;2004000;-87
2023/01/30 11:24:39;;;;;;;3.53;2.57;;;3.60;99.90;;;;;;7416569;19;20333;-87
2023/01/30 11:27:29;;;;;;;2.95;2.53;;;3.70;99.90;;;;;;7419975;19;20313;-87
2023/01/30 11:30:17;;;;;;;2.80;2.20;;;3.80;99.90;;;;;;7419248;19;20305;-88
2023/01/30 11:32:43;;;;;;;3.03;2.40;;;4.00;99.90;;;;;;7214185;19;2004300;-88
2023/01/30 11:35:09;;;;;;;2.20;2.00;;;4.20;99.90;;;;;;7417673;19;20333;-88
2023/01/30 11:37:38;;;;;;;3.70;2.17;;;4.20;99.90;;;;;;7417774;19;20327;-87
2023/01/30 11:40:17;;;;;;;3.50;2.00;;;4.30;99.90;;;;;;7419409;19;20341;-88
2023/01/30 11:42:47;;;;;;;3.38;2.13;;;4.20;99.90;;;;;;7417770;19;20343;-88
2023/01/30 11:45:16;;;;;;;3.23;2.10;;;4.30;99.90;;;;;;7419164;19;20319;-88
2023/01/30 11:48:02;;;;;;;2.67;2.17;;;4.40;99.90;;;;;;7418888;19;20325;-88
2023/01/30 11:50:42;;;;;;;2.33;2.10;;;4.40;99.90;;;;;;7315101;19;2004293;-87
2023/01/30 11:53:16;;;;;;;2.67;2.17;;;4.40;99.90;;;;;;7418001;19;20305;-86
2023/01/30 11:55:41;;;;;;;2.65;2.17;;;4.40;99.90;;;;;;7417910;19;20328;-87
2023/01/30 11:58:08;;;;;;;3.75;2.20;;;4.50;99.90;;;;;;7420209;19;20342;-88
2023/01/30 12:00:38;;;;;;;2.88;2.38;;;4.70;99.90;;;;;;7396371;19;20312;-87
2023/01/30 12:03:05;;;;;;;2.30;2.10;;;4.70;99.90;;;;;;7417177;19;20320;-87
2023/01/30 12:05:33;;;;;;;2.40;1.80;;;4.70;99.90;;;;;;7417638;19;20344;-89
2023/01/30 12:08:20;;;;;;;3.13;2.33;;;4.70;99.90;;;;;;7416917;19;20305;-88
2023/01/30 12:10:54;;;;;;;3.05;2.45;;;4.70;99.90;;;;;;7418503;19;22587;-88
2023/01/30 12:13:24;;;;;;;2.63;2.08;;;4.80;99.90;;;;;;7416687;19;20329;-88
2023/01/30 12:15:55;;;;;;;4.53;2.60;;;4.80;99.90;;;;;;7418396;19;20381;-89
2023/01/30 12:18:34;;;;;;;3.20;2.50;;;4.80;99.90;;;;;;7418383;19;20295;-88
2023/01/30 12:21:10;;;;;;;3.42;2.15;;;4.60;99.90;;;;;;7312579;19;2004018;-88
2023/01/30 12:23:45;;;;;;;2.65;2.15;;;4.60;99.90;;;;;;7415979;19;20329;-89
2023/01/30 12:26:27;;;;;;;3.47;2.58;;;4.50;99.90;;;;;;7416110;19;20335;-86
2023/01/30 12:29:01;;;;;;;4.22;2.30;;;4.50;99.90;;;;;;7416203;19;20328;-87
2023/01/30 12:31:40;;;;;;;4.03;2.33;;;4.50;99.90;;;;;;7313181;19;2004332;-87
2023/01/30 12:34:07;;;;;;;6.75;3.88;;;4.50;99.90;;;;;;7416173;19;20335;-87
2023/01/30 12:36:58;;;;;;;4.22;2.42;;;4.60;99.90;;;;;;7415869;19;20343;-86
2023/01/30 12:39:44;;;;;;;5.03;2.60;;;4.50;99.90;;;;;;7417453;19;20304;-87
2023/01/30 12:42:46;;;;;;;3.92;2.33;;;4.60;99.90;;;;;;7313221;19;2004035;-87
2023/01/30 12:45:31;;;;;;;2.83;2.30;;;4.60;99.90;;;;;;7314941;19;2004431;-87
2023/01/30 12:48:21;;;;;;;4.28;2.40;;;4.60;99.90;;;;;;7313454;19;2004007;-87
2023/01/30 12:50:54;;;;;;;2.63;2.20;;;4.70;99.90;;;;;;7413364;19;20308;-87
2023/01/30 12:53:36;;;;;;;2.88;1.83;;;4.80;99.90;;;;;;7414444;19;20285;-87
2023/01/30 12:56:40;;;;;;;3.40;2.35;;;4.80;99.90;;;;;;7313791;19;2004188;-87
2023/01/30 12:59:23;;;;;;;3.60;2.53;;;4.90;99.90;;;;;;7314048;19;2004064;-86
2023/01/30 13:02:13;;;;;;;4.28;2.47;;;4.90;99.90;;;;;;7393218;19;20323;-87
2023/01/30 13:04:48;;;;;;;2.63;2.20;;;4.80;99.90;;;;;;7313363;19;2004095;-88
2023/01/30 13:07:16;;;;;;;4.15;2.60;;;4.80;99.90;;;;;;7416586;19;20323;-89
2023/01/30 13:09:55;;;;;;;6.10;2.75;;;4.80;99.90;;;;;;7415419;19;20309;-88
2023/01/30 13:12:37;;;;;;;5.72;2.58;;;4.90;99.90;;;;;;7415714;19;20594;-88
2023/01/30 13:15:23;;;;;;;3.10;2.08;;;4.80;99.90;;;;;;7313938;19;2004043;-88
2023/01/30 13:17:55;;;;;;;4.32;2.25;;;5.00;99.90;;;;;;7417328;19;20312;-88